sensor_id;sensor_type;location;lat;lon;timestamp;pressure;altitude;pressure_sealevel;temperature;humidity
30081;BME280;16902;50.816;12.828;2023-05-20T00:03:43;98407.53;;;10.81;100.00
30081;BME280;16902;50.816;12.828;2023-05-20T00:08:45;98404.44;;;10.77;100.00
30081;BME280;16902;50.816;12.828;2023-05-20T00:13:46;98401.19;;;10.75;100.00
30081;BME280;16902;50.816;12.828;2023-05-20T00:18:48;98406.59;;;10.74;100.00
30081;BME280;16902;50.816;12.828;2023-05-20T00:23:50;98413.59;;;10.65;100.00
30081;BME280;16902;50.816;12.828;2023-05-20T00:28:52;98407.56;;;10.65;100.00
30081;BME280;16902;50.816;12.828;2023-05-20T00:33:54;98403.50;;;10.62;100.00
30081;BME280;16902;50.816;12.828;2023-05-20T00:38:55;98401.69;;;10.63;100.00
30081;BME280;16902;50.816;12.828;2023-05-20T00:43:57;98396.66;;;10.53;100.00
30081;BME280;16902;50.816;12.828;2023-05-20T00:48:59;98393.25;;;10.44;100.00
30081;BME280;16902;50.816;12.828;2023-05-20T00:54:01;98404.16;;;10.32;100.00
30081;BME280;16902;50.816;12.828;2023-05-20T00:59:04;98396.13;;;10.17;100.00
30081;BME280;16902;50.816;12.828;2023-05-20T01:04:06;98398.25;;;10.13;100.00
30081;BME280;16902;50.816;12.828;2023-05-20T01:09:07;98399.38;;;10.19;100.00
30081;BME280;16902;50.816;12.828;2023-05-20T01:14:11;98396.16;;;10.25;100.00
30081;BME280;16902;50.816;12.828;2023-05-20T01:19:21;98393.41;;;10.26;100.00
30081;BME280;16902;50.816;12.828;2023-05-20T01:24:29;98378.59;;;10.27;100.00
30081;BME280;16902;50.816;12.828;2023-05-20T01:29:33;98371.94;;;10.24;100.00
30081;BME280;16902;50.816;12.828;2023-05-20T01:34:35;98387.19;;;10.19;100.00
30081;BME280;16902;50.816;12.828;2023-05-20T01:39:39;98387.34;;;10.18;100.00
30081;BME280;16902;50.816;12.828;2023-05-20T01:44:44;98385.06;;;10.15;100.00
30081;BME280;16902;50.816;12.828;2023-05-20T01:49:46;98382.31;;;10.08;100.00
30081;BME280;16902;50.816;12.828;2023-05-20T01:54:48;98379.69;;;10.00;100.00
30081;BME280;16902;50.816;12.828;2023-05-20T01:59:51;98376.09;;;9.93;100.00
30081;BME280;16902;50.816;12.828;2023-05-20T02:04:53;98374.94;;;9.79;100.00
30081;BME280;16902;50.816;12.828;2023-05-20T02:09:55;98366.44;;;9.61;100.00
30081;BME280;16902;50.816;12.828;2023-05-20T02:14:57;98368.66;;;9.39;100.00
30081;BME280;16902;50.816;12.828;2023-05-20T02:19:59;98352.19;;;9.22;100.00
30081;BME280;16902;50.816;12.828;2023-05-20T02:25:01;98357.97;;;9.08;100.00
30081;BME280;16902;50.816;12.828;2023-05-20T02:30:03;98357.94;;;9.00;100.00
30081;BME280;16902;50.816;12.828;2023-05-20T02:35:05;98357.38;;;8.88;100.00
30081;BME280;16902;50.816;12.828;2023-05-20T02:40:07;98358.75;;;8.74;100.00
30081;BME280;16902;50.816;12.828;2023-05-20T02:45:12;98362.13;;;8.67;100.00
30081;BME280;16902;50.816;12.828;2023-05-20T02:50:14;98354.28;;;8.59;100.00
30081;BME280;16902;50.816;12.828;2023-05-20T02:55:16;98357.84;;;8.58;100.00
30081;BME280;16902;50.816;12.828;2023-05-20T03:00:17;98355.00;;;8.69;100.00
30081;BME280;16902;50.816;12.828;2023-05-20T03:05:19;98360.28;;;8.85;100.00
30081;BME280;16902;50.816;12.828;2023-05-20T03:10:22;98348.00;;;8.95;100.00
30081;BME280;16902;50.816;12.828;2023-05-20T03:15:23;98335.22;;;9.02;100.00
30081;BME280;16902;50.816;12.828;2023-05-20T03:20:25;98333.78;;;9.08;100.00
30081;BME280;16902;50.816;12.828;2023-05-20T03:25:28;98334.09;;;9.05;100.00
30081;BME280;16902;50.816;12.828;2023-05-20T03:30:30;98349.34;;;8.99;100.00
30081;BME280;16902;50.816;12.828;2023-05-20T03:35:32;98345.53;;;8.94;100.00
30081;BME280;16902;50.816;12.828;2023-05-20T03:40:34;98358.69;;;8.92;100.00
30081;BME280;16902;50.816;12.828;2023-05-20T03:45:37;98359.34;;;8.94;100.00
30081;BME280;16902;50.816;12.828;2023-05-20T03:50:40;98368.47;;;8.98;100.00
30081;BME280;16902;50.816;12.828;2023-05-20T03:55:42;98368.69;;;9.05;100.00
30081;BME280;16902;50.816;12.828;2023-05-20T04:00:47;98371.28;;;9.13;100.00
30081;BME280;16902;50.816;12.828;2023-05-20T04:05:49;98378.97;;;9.23;100.00
30081;BME280;16902;50.816;12.828;2023-05-20T04:10:55;98367.16;;;9.29;100.00
30081;BME280;16902;50.816;12.828;2023-05-20T04:15:57;98369.94;;;9.35;100.00
30081;BME280;16902;50.816;12.828;2023-05-20T04:20:59;98375.47;;;9.40;100.00
30081;BME280;16902;50.816;12.828;2023-05-20T04:26:02;98375.50;;;9.48;100.00
30081;BME280;16902;50.816;12.828;2023-05-20T04:31:06;98373.13;;;9.63;100.00
30081;BME280;16902;50.816;12.828;2023-05-20T04:36:10;98381.09;;;9.70;100.00
30081;BME280;16902;50.816;12.828;2023-05-20T04:41:15;98383.38;;;9.73;100.00
30081;BME280;16902;50.816;12.828;2023-05-20T04:46:18;98376.38;;;9.65;100.00
30081;BME280;16902;50.816;12.828;2023-05-20T04:51:21;98370.72;;;9.78;100.00
30081;BME280;16902;50.816;12.828;2023-05-20T04:56:25;98372.66;;;9.84;100.00
30081;BME280;16902;50.816;12.828;2023-05-20T05:01:27;98364.72;;;9.94;100.00
30081;BME280;16902;50.816;12.828;2023-05-20T05:06:28;98366.84;;;9.82;100.00
30081;BME280;16902;50.816;12.828;2023-05-20T05:11:32;98379.69;;;9.92;100.00
30081;BME280;16902;50.816;12.828;2023-05-20T05:16:34;98361.47;;;10.00;100.00
30081;BME280;16902;50.816;12.828;2023-05-20T05:21:36;98358.22;;;10.14;100.00
30081;BME280;16902;50.816;12.828;2023-05-20T05:26:38;98362.31;;;10.25;100.00
30081;BME280;16902;50.816;12.828;2023-05-20T05:31:39;98356.63;;;10.21;100.00
30081;BME280;16902;50.816;12.828;2023-05-20T05:36:41;98356.63;;;10.13;100.00
30081;BME280;16902;50.816;12.828;2023-05-20T05:41:43;98360.06;;;10.38;100.00
30081;BME280;16902;50.816;12.828;2023-05-20T05:46:46;98349.78;;;10.53;100.00
30081;BME280;16902;50.816;12.828;2023-05-20T05:51:51;98353.38;;;10.60;100.00
30081;BME280;16902;50.816;12.828;2023-05-20T05:56:53;98354.50;;;10.74;100.00
30081;BME280;16902;50.816;12.828;2023-05-20T06:01:58;98349.38;;;10.97;100.00
30081;BME280;16902;50.816;12.828;2023-05-20T06:07:00;98361.88;;;11.10;100.00
30081;BME280;16902;50.816;12.828;2023-05-20T06:12:03;98359.75;;;11.13;100.00
30081;BME280;16902;50.816;12.828;2023-05-20T06:17:06;98343.84;;;11.39;100.00
30081;BME280;16902;50.816;12.828;2023-05-20T06:22:08;98348.00;;;11.56;100.00
30081;BME280;16902;50.816;12.828;2023-05-20T06:27:10;98353.41;;;11.78;100.00
30081;BME280;16902;50.816;12.828;2023-05-20T06:32:12;98352.13;;;12.05;100.00
30081;BME280;16902;50.816;12.828;2023-05-20T06:37:15;98345.75;;;12.07;100.00
30081;BME280;16902;50.816;12.828;2023-05-20T06:42:17;98345.88;;;12.14;100.00
30081;BME280;16902;50.816;12.828;2023-05-20T06:47:22;98351.50;;;12.41;100.00
30081;BME280;16902;50.816;12.828;2023-05-20T06:52:25;98353.66;;;12.37;100.00
30081;BME280;16902;50.816;12.828;2023-05-20T06:57:27;98351.59;;;12.47;100.00
30081;BME280;16902;50.816;12.828;2023-05-20T07:02:32;98340.22;;;12.63;100.00
30081;BME280;16902;50.816;12.828;2023-05-20T07:07:34;98335.47;;;12.96;100.00
30081;BME280;16902;50.816;12.828;2023-05-20T07:12:37;98326.63;;;13.27;100.00
30081;BME280;16902;50.816;12.828;2023-05-20T07:17:39;98323.19;;;13.62;100.00
30081;BME280;16902;50.816;12.828;2023-05-20T07:22:41;98318.22;;;13.17;100.00
30081;BME280;16902;50.816;12.828;2023-05-20T07:27:54;98319.78;;;13.62;100.00
30081;BME280;16902;50.816;12.828;2023-05-20T07:32:56;98322.44;;;14.54;100.00
30081;BME280;16902;50.816;12.828;2023-05-20T07:37:58;98314.72;;;14.46;100.00
30081;BME280;16902;50.816;12.828;2023-05-20T07:43:01;98304.00;;;14.41;100.00
30081;BME280;16902;50.816;12.828;2023-05-20T07:48:03;98295.25;;;14.34;100.00
30081;BME280;16902;50.816;12.828;2023-05-20T07:53:06;98301.59;;;13.97;100.00
30081;BME280;16902;50.816;12.828;2023-05-20T07:58:09;98297.13;;;13.91;100.00
30081;BME280;16902;50.816;12.828;2023-05-20T08:03:13;98295.31;;;14.12;100.00
30081;BME280;16902;50.816;12.828;2023-05-20T08:08:35;98290.84;;;14.34;100.00
30081;BME280;16902;50.816;12.828;2023-05-20T08:13:43;98295.47;;;14.32;100.00
30081;BME280;16902;50.816;12.828;2023-05-20T08:18:45;98268.03;;;14.28;100.00
30081;BME280;16902;50.816;12.828;2023-05-20T08:23:47;98267.81;;;14.86;100.00
30081;BME280;16902;50.816;12.828;2023-05-20T08:28:49;98265.25;;;14.99;100.00
30081;BME280;16902;50.816;12.828;2023-05-20T08:33:53;98254.19;;;15.04;100.00
30081;BME280;16902;50.816;12.828;2023-05-20T08:38:55;98254.13;;;14.90;100.00
30081;BME280;16902;50.816;12.828;2023-05-20T08:43:59;98260.88;;;15.20;100.00
30081;BME280;16902;50.816;12.828;2023-05-20T08:49:02;98259.66;;;15.22;100.00
30081;BME280;16902;50.816;12.828;2023-05-20T08:54:06;98255.09;;;15.44;100.00
30081;BME280;16902;50.816;12.828;2023-05-20T08:59:09;98247.72;;;15.87;100.00
30081;BME280;16902;50.816;12.828;2023-05-20T09:04:11;98247.69;;;15.81;100.00
30081;BME280;16902;50.816;12.828;2023-05-20T09:09:13;98243.06;;;16.09;100.00
30081;BME280;16902;50.816;12.828;2023-05-20T09:14:15;98244.50;;;16.05;100.00
30081;BME280;16902;50.816;12.828;2023-05-20T09:19:20;98241.63;;;16.47;100.00
30081;BME280;16902;50.816;12.828;2023-05-20T09:24:25;98237.53;;;16.57;100.00
30081;BME280;16902;50.816;12.828;2023-05-20T09:29:32;98235.06;;;16.82;100.00
30081;BME280;16902;50.816;12.828;2023-05-20T09:34:34;98228.47;;;16.47;100.00
30081;BME280;16902;50.816;12.828;2023-05-20T09:39:47;98216.38;;;16.32;100.00
30081;BME280;16902;50.816;12.828;2023-05-20T09:44:54;98215.88;;;16.62;100.00
30081;BME280;16902;50.816;12.828;2023-05-20T09:49:59;98197.44;;;17.27;100.00
30081;BME280;16902;50.816;12.828;2023-05-20T09:55:02;98201.63;;;16.96;100.00
30081;BME280;16902;50.816;12.828;2023-05-20T10:00:06;98193.75;;;17.59;100.00
30081;BME280;16902;50.816;12.828;2023-05-20T10:05:23;98187.22;;;17.75;100.00
30081;BME280;16902;50.816;12.828;2023-05-20T10:21:24;98179.63;;;19.14;100.00
30081;BME280;16902;50.816;12.828;2023-05-20T10:26:37;98180.84;;;18.99;100.00
30081;BME280;16902;50.816;12.828;2023-05-20T10:31:44;98178.31;;;18.74;100.00
30081;BME280;16902;50.816;12.828;2023-05-20T10:42:10;98169.72;;;18.97;100.00
30081;BME280;16902;50.816;12.828;2023-05-20T10:47:12;98171.63;;;19.62;100.00
30081;BME280;16902;50.816;12.828;2023-05-20T10:52:17;98174.31;;;19.74;100.00
30081;BME280;16902;50.816;12.828;2023-05-20T10:57:20;98158.88;;;19.59;100.00
30081;BME280;16902;50.816;12.828;2023-05-20T11:02:22;98155.47;;;20.06;100.00
30081;BME280;16902;50.816;12.828;2023-05-20T11:07:29;98144.03;;;20.92;100.00
30081;BME280;16902;50.816;12.828;2023-05-20T11:12:31;98147.78;;;21.08;100.00
30081;BME280;16902;50.816;12.828;2023-05-20T11:17:33;98141.06;;;20.37;100.00
30081;BME280;16902;50.816;12.828;2023-05-20T11:22:35;98129.78;;;21.10;100.00
30081;BME280;16902;50.816;12.828;2023-05-20T11:27:38;98129.25;;;20.79;100.00
30081;BME280;16902;50.816;12.828;2023-05-20T11:32:40;98120.91;;;21.84;100.00
30081;BME280;16902;50.816;12.828;2023-05-20T11:37:43;98113.41;;;23.66;100.00
30081;BME280;16902;50.816;12.828;2023-05-20T11:42:45;98102.56;;;22.60;100.00
30081;BME280;16902;50.816;12.828;2023-05-20T11:47:58;98093.00;;;20.51;100.00
30081;BME280;16902;50.816;12.828;2023-05-20T11:53:02;98099.03;;;20.12;100.00
30081;BME280;16902;50.816;12.828;2023-05-20T11:58:03;98088.50;;;19.88;100.00
30081;BME280;16902;50.816;12.828;2023-05-20T12:03:05;98094.81;;;19.75;100.00
30081;BME280;16902;50.816;12.828;2023-05-20T12:08:07;98096.81;;;21.01;100.00
30081;BME280;16902;50.816;12.828;2023-05-20T12:13:09;98086.59;;;20.36;100.00
30081;BME280;16902;50.816;12.828;2023-05-20T12:18:13;98090.81;;;22.77;100.00
30081;BME280;16902;50.816;12.828;2023-05-20T12:23:15;98088.09;;;23.26;100.00
30081;BME280;16902;50.816;12.828;2023-05-20T12:28:17;98077.25;;;21.19;100.00
30081;BME280;16902;50.816;12.828;2023-05-20T12:33:18;98061.31;;;22.74;100.00
30081;BME280;16902;50.816;12.828;2023-05-20T12:38:21;98072.63;;;20.40;100.00
30081;BME280;16902;50.816;12.828;2023-05-20T12:43:23;98053.22;;;20.75;100.00
30081;BME280;16902;50.816;12.828;2023-05-20T12:48:24;98061.31;;;22.25;100.00
30081;BME280;16902;50.816;12.828;2023-05-20T12:53:26;98060.16;;;21.99;100.00
30081;BME280;16902;50.816;12.828;2023-05-20T12:58:28;98066.91;;;21.68;100.00
30081;BME280;16902;50.816;12.828;2023-05-20T13:03:29;98059.59;;;21.41;100.00
30081;BME280;16902;50.816;12.828;2023-05-20T13:08:31;98063.59;;;23.94;100.00
30081;BME280;16902;50.816;12.828;2023-05-20T13:13:33;98056.44;;;25.79;100.00
30081;BME280;16902;50.816;12.828;2023-05-20T13:18:35;98066.38;;;27.22;100.00
30081;BME280;16902;50.816;12.828;2023-05-20T13:23:37;98052.19;;;25.53;100.00
30081;BME280;16902;50.816;12.828;2023-05-20T13:28:39;98043.41;;;23.18;100.00
30081;BME280;16902;50.816;12.828;2023-05-20T13:33:40;98038.09;;;23.18;100.00
30081;BME280;16902;50.816;12.828;2023-05-20T13:38:43;98016.50;;;21.46;100.00
30081;BME280;16902;50.816;12.828;2023-05-20T13:43:44;98018.56;;;24.45;100.00
30081;BME280;16902;50.816;12.828;2023-05-20T13:48:47;98020.03;;;22.34;100.00
30081;BME280;16902;50.816;12.828;2023-05-20T13:53:48;98014.97;;;21.89;100.00
30081;BME280;16902;50.816;12.828;2023-05-20T13:58:50;98017.97;;;23.27;100.00
30081;BME280;16902;50.816;12.828;2023-05-20T14:03:52;98005.47;;;23.28;100.00
30081;BME280;16902;50.816;12.828;2023-05-20T14:08:55;97997.88;;;22.23;100.00
30081;BME280;16902;50.816;12.828;2023-05-20T14:13:57;97998.41;;;25.00;100.00
30081;BME280;16902;50.816;12.828;2023-05-20T14:18:59;97988.50;;;21.16;100.00
30081;BME280;16902;50.816;12.828;2023-05-20T14:24:00;97983.22;;;21.94;100.00
30081;BME280;16902;50.816;12.828;2023-05-20T14:29:02;97978.69;;;22.65;100.00
30081;BME280;16902;50.816;12.828;2023-05-20T14:34:04;97974.06;;;22.55;100.00
30081;BME280;16902;50.816;12.828;2023-05-20T14:39:06;97978.41;;;22.94;100.00
30081;BME280;16902;50.816;12.828;2023-05-20T14:44:07;97976.47;;;23.64;100.00
30081;BME280;16902;50.816;12.828;2023-05-20T14:49:09;97971.72;;;24.95;100.00
30081;BME280;16902;50.816;12.828;2023-05-20T14:54:11;97971.63;;;22.49;100.00
30081;BME280;16902;50.816;12.828;2023-05-20T14:59:14;97980.56;;;20.66;100.00
30081;BME280;16902;50.816;12.828;2023-05-20T15:04:16;97979.81;;;19.85;100.00
30081;BME280;16902;50.816;12.828;2023-05-20T15:09:17;97977.84;;;19.92;100.00
30081;BME280;16902;50.816;12.828;2023-05-20T15:14:19;97963.38;;;21.52;100.00
30081;BME280;16902;50.816;12.828;2023-05-20T15:19:21;97961.66;;;22.61;100.00
30081;BME280;16902;50.816;12.828;2023-05-20T15:24:23;97956.88;;;21.65;100.00
30081;BME280;16902;50.816;12.828;2023-05-20T15:29:25;97955.97;;;20.99;100.00
30081;BME280;16902;50.816;12.828;2023-05-20T15:34:26;97955.03;;;21.27;100.00
30081;BME280;16902;50.816;12.828;2023-05-20T15:39:28;97950.22;;;21.24;100.00
30081;BME280;16902;50.816;12.828;2023-05-20T15:44:30;97956.06;;;21.26;100.00
30081;BME280;16902;50.816;12.828;2023-05-20T15:49:32;97954.91;;;22.80;100.00
30081;BME280;16902;50.816;12.828;2023-05-20T15:54:33;97953.94;;;22.60;100.00
30081;BME280;16902;50.816;12.828;2023-05-20T15:59:35;97956.91;;;20.76;100.00
30081;BME280;16902;50.816;12.828;2023-05-20T16:04:37;97945.50;;;19.73;100.00
30081;BME280;16902;50.816;12.828;2023-05-20T16:09:39;97942.88;;;19.61;100.00
30081;BME280;16902;50.816;12.828;2023-05-20T16:14:41;97929.69;;;19.49;100.00
30081;BME280;16902;50.816;12.828;2023-05-20T16:19:42;97929.59;;;19.09;100.00
30081;BME280;16902;50.816;12.828;2023-05-20T16:24:44;97930.63;;;18.96;100.00
30081;BME280;16902;50.816;12.828;2023-05-20T16:29:46;97926.41;;;18.95;100.00
30081;BME280;16902;50.816;12.828;2023-05-20T16:34:48;97918.69;;;18.94;100.00
30081;BME280;16902;50.816;12.828;2023-05-20T16:39:49;97920.41;;;19.00;100.00
30081;BME280;16902;50.816;12.828;2023-05-20T16:44:51;97913.88;;;19.03;100.00
30081;BME280;16902;50.816;12.828;2023-05-20T16:49:54;97918.13;;;19.15;100.00
30081;BME280;16902;50.816;12.828;2023-05-20T16:54:56;97928.09;;;19.25;100.00
30081;BME280;16902;50.816;12.828;2023-05-20T17:00:02;97930.88;;;19.07;100.00
30081;BME280;16902;50.816;12.828;2023-05-20T17:05:12;97942.78;;;18.86;100.00
30081;BME280;16902;50.816;12.828;2023-05-20T17:10:17;97932.09;;;18.69;100.00
30081;BME280;16902;50.816;12.828;2023-05-20T17:15:19;97932.97;;;18.63;100.00
30081;BME280;16902;50.816;12.828;2023-05-20T17:20:21;97927.91;;;18.61;100.00
30081;BME280;16902;50.816;12.828;2023-05-20T17:25:23;97929.81;;;18.72;100.00
30081;BME280;16902;50.816;12.828;2023-05-20T17:30:25;97940.38;;;18.84;100.00
30081;BME280;16902;50.816;12.828;2023-05-20T17:35:27;97935.09;;;18.84;100.00
30081;BME280;16902;50.816;12.828;2023-05-20T17:40:29;97942.56;;;18.87;100.00
30081;BME280;16902;50.816;12.828;2023-05-20T17:45:31;97950.81;;;18.91;100.00
30081;BME280;16902;50.816;12.828;2023-05-20T17:50:32;97947.25;;;18.85;100.00
30081;BME280;16902;50.816;12.828;2023-05-20T17:55:35;97949.06;;;18.73;100.00
30081;BME280;16902;50.816;12.828;2023-05-20T18:00:37;97957.13;;;18.48;100.00
30081;BME280;16902;50.816;12.828;2023-05-20T18:05:42;97953.75;;;18.29;100.00
30081;BME280;16902;50.816;12.828;2023-05-20T18:10:44;97954.97;;;18.15;100.00
30081;BME280;16902;50.816;12.828;2023-05-20T18:15:46;97956.78;;;18.14;100.00
30081;BME280;16902;50.816;12.828;2023-05-20T18:20:48;97960.75;;;18.05;100.00
30081;BME280;16902;50.816;12.828;2023-05-20T18:25:50;97960.22;;;17.85;100.00
30081;BME280;16902;50.816;12.828;2023-05-20T18:30:52;97964.28;;;17.62;100.00
30081;BME280;16902;50.816;12.828;2023-05-20T18:35:53;97966.00;;;17.50;100.00
30081;BME280;16902;50.816;12.828;2023-05-20T18:40:55;97965.72;;;17.40;100.00
30081;BME280;16902;50.816;12.828;2023-05-20T18:45:57;97967.75;;;17.19;100.00
30081;BME280;16902;50.816;12.828;2023-05-20T18:50:59;97973.72;;;17.08;100.00
30081;BME280;16902;50.816;12.828;2023-05-20T18:56:00;97982.09;;;16.99;100.00
30081;BME280;16902;50.816;12.828;2023-05-20T19:01:03;97991.34;;;16.83;100.00
30081;BME280;16902;50.816;12.828;2023-05-20T19:06:05;97997.28;;;16.65;100.00
30081;BME280;16902;50.816;12.828;2023-05-20T19:11:07;98006.44;;;16.56;100.00
30081;BME280;16902;50.816;12.828;2023-05-20T19:16:09;98003.69;;;16.44;100.00
30081;BME280;16902;50.816;12.828;2023-05-20T19:21:11;97996.06;;;16.29;100.00
30081;BME280;16902;50.816;12.828;2023-05-20T19:26:12;98004.41;;;16.19;100.00
30081;BME280;16902;50.816;12.828;2023-05-20T19:31:14;97998.78;;;16.09;100.00
30081;BME280;16902;50.816;12.828;2023-05-20T19:36:21;97994.19;;;15.98;100.00
30081;BME280;16902;50.816;12.828;2023-05-20T19:41:23;98000.28;;;15.85;100.00
30081;BME280;16902;50.816;12.828;2023-05-20T19:46:25;97999.78;;;15.63;100.00
30081;BME280;16902;50.816;12.828;2023-05-20T19:51:27;98007.63;;;15.50;100.00
30081;BME280;16902;50.816;12.828;2023-05-20T19:56:28;97998.56;;;15.53;100.00
30081;BME280;16902;50.816;12.828;2023-05-20T20:01:30;98001.59;;;15.50;100.00
30081;BME280;16902;50.816;12.828;2023-05-20T20:06:32;98010.47;;;15.42;100.00
30081;BME280;16902;50.816;12.828;2023-05-20T20:11:34;98008.69;;;15.42;100.00
30081;BME280;16902;50.816;12.828;2023-05-20T20:16:36;98002.63;;;15.22;100.00
30081;BME280;16902;50.816;12.828;2023-05-20T20:21:38;98009.28;;;14.98;100.00
30081;BME280;16902;50.816;12.828;2023-05-20T20:26:40;98003.03;;;14.73;100.00
30081;BME280;16902;50.816;12.828;2023-05-20T20:31:42;98005.19;;;14.49;100.00
30081;BME280;16902;50.816;12.828;2023-05-20T20:36:45;98001.91;;;14.34;100.00
30081;BME280;16902;50.816;12.828;2023-05-20T20:41:48;97998.44;;;14.13;100.00
30081;BME280;16902;50.816;12.828;2023-05-20T20:46:53;97997.56;;;13.93;100.00
30081;BME280;16902;50.816;12.828;2023-05-20T20:51:55;97994.22;;;13.78;100.00
30081;BME280;16902;50.816;12.828;2023-05-20T20:56:57;97995.94;;;13.57;100.00
30081;BME280;16902;50.816;12.828;2023-05-20T21:02:00;97989.75;;;13.30;100.00
30081;BME280;16902;50.816;12.828;2023-05-20T21:07:02;97993.41;;;13.15;100.00
30081;BME280;16902;50.816;12.828;2023-05-20T21:12:04;97987.47;;;12.99;100.00
30081;BME280;16902;50.816;12.828;2023-05-20T21:17:07;97988.81;;;12.89;100.00
30081;BME280;16902;50.816;12.828;2023-05-20T21:22:10;97985.50;;;12.80;100.00
30081;BME280;16902;50.816;12.828;2023-05-20T21:27:12;97985.03;;;12.70;100.00
30081;BME280;16902;50.816;12.828;2023-05-20T21:32:14;97981.81;;;12.68;100.00
30081;BME280;16902;50.816;12.828;2023-05-20T21:37:15;97974.66;;;12.55;100.00
30081;BME280;16902;50.816;12.828;2023-05-20T21:42:17;97978.13;;;12.41;100.00
30081;BME280;16902;50.816;12.828;2023-05-20T21:47:19;97984.19;;;12.26;100.00
30081;BME280;16902;50.816;12.828;2023-05-20T21:52:21;97984.13;;;12.20;100.00
30081;BME280;16902;50.816;12.828;2023-05-20T21:57:22;97984.03;;;12.13;100.00
30081;BME280;16902;50.816;12.828;2023-05-20T22:02:24;97984.69;;;12.15;100.00
30081;BME280;16902;50.816;12.828;2023-05-20T22:07:26;97984.44;;;12.10;100.00
30081;BME280;16902;50.816;12.828;2023-05-20T22:12:28;97976.91;;;11.86;100.00
30081;BME280;16902;50.816;12.828;2023-05-20T22:17:30;97972.31;;;11.73;100.00
30081;BME280;16902;50.816;12.828;2023-05-20T22:22:34;97971.59;;;11.64;100.00
30081;BME280;16902;50.816;12.828;2023-05-20T22:27:36;97961.69;;;11.59;100.00
30081;BME280;16902;50.816;12.828;2023-05-20T22:32:39;97964.84;;;11.55;100.00
30081;BME280;16902;50.816;12.828;2023-05-20T22:37:41;97948.78;;;11.51;100.00
30081;BME280;16902;50.816;12.828;2023-05-20T22:42:43;97945.91;;;11.46;100.00
30081;BME280;16902;50.816;12.828;2023-05-20T22:47:45;97943.38;;;11.38;100.00
30081;BME280;16902;50.816;12.828;2023-05-20T22:52:47;97939.50;;;11.34;100.00
30081;BME280;16902;50.816;12.828;2023-05-20T22:57:50;97931.22;;;11.30;100.00
30081;BME280;16902;50.816;12.828;2023-05-20T23:02:51;97939.31;;;11.36;100.00
30081;BME280;16902;50.816;12.828;2023-05-20T23:07:53;97932.22;;;11.29;100.00
30081;BME280;16902;50.816;12.828;2023-05-20T23:12:55;97926.81;;;11.31;100.00
30081;BME280;16902;50.816;12.828;2023-05-20T23:17:57;97929.06;;;11.49;100.00
30081;BME280;16902;50.816;12.828;2023-05-20T23:22:58;97928.34;;;11.40;100.00
30081;BME280;16902;50.816;12.828;2023-05-20T23:28:11;97932.88;;;11.31;100.00
30081;BME280;16902;50.816;12.828;2023-05-20T23:33:12;97928.28;;;11.19;100.00
30081;BME280;16902;50.816;12.828;2023-05-20T23:38:15;97933.75;;;11.09;100.00
30081;BME280;16902;50.816;12.828;2023-05-20T23:43:17;97933.03;;;11.15;100.00
30081;BME280;16902;50.816;12.828;2023-05-20T23:48:19;97924.22;;;11.16;100.00
30081;BME280;16902;50.816;12.828;2023-05-20T23:53:21;97922.00;;;11.28;100.00
30081;BME280;16902;50.816;12.828;2023-05-20T23:58:23;97920.78;;;11.60;100.00
